ADDS METAR Data INFO
IDs: Format: Raw Decoded Include TAF

Data at: 1008 UTC 12 Dec 2017

KNUQ 120956Z 14003KT 10SM CLR 06/02 A3033 RMK AO2 SLP272 T00560017
KNUQ 120856Z 00000KT 10SM CLR 06/02 A3034 RMK AO2 SLP275 T00610017 50004
KNUQ 120756Z 00000KT 10SM CLR 07/02 A3034 RMK AO2 SLP276 T00720017 401940028
KNUQ 120656Z 00000KT 10SM CLR 08/03 A3034 RMK AO2 SLP275 T00830028
KNUQ 120556Z 00000KT 10SM CLR 09/03 A3032 RMK AO2 SLP271 T00890028 10183 20089 53008
KNUQ 120456Z 00000KT 10SM CLR 10/03 A3031 RMK AO2 SLP267 T01000028
KNUQ 120356Z 21003KT 10SM CLR 12/06 A3031 RMK AO2 SLP265 T01170056
KNUQ 120256Z 00000KT 10SM CLR 11/05 A3030 RMK AO2 SLP263 T01110050 52014
KNUQ 120156Z 00000KT 10SM CLR 13/05 A3029 RMK AO2 SLP259 T01330050
KNUQ 120056Z 34003KT 10SM CLR 14/07 A3027 RMK AO2 SLP253 T01390072
KNUQ 112356Z 00000KT 10SM CLR 19/02 A3026 RMK AO2 SLP249 T01890017 10194 20117 56007
KNUQ 112256Z 00000KT 10SM CLR 19/02 A3026 RMK AO2 SLP249 T01890022
KNUQ 112156Z 35003KT 10SM CLR 19/03 A3027 RMK AO2 SLP252 T01890028
KNUQ 112056Z 35004KT 10SM CLR 17/02 A3028 RMK AO2 SLP256 T01720017 58016
KNUQ 111956Z 34004KT 10SM CLR 15/04 A3030 RMK AO2 SLP264 T01500039
KNUQ 111856Z 36004KT 10SM CLR 14/03 A3032 RMK AO2 SLP270 T01440033
KNUQ 111756Z 28003KT 10SM CLR 11/02 A3033 RMK AO2 SLP272 T01110022 10111 20028 53013
KNUQ 111656Z 00000KT 10SM CLR 08/03 A3031 RMK AO2 SLP267 T00830033
KNUQ 111556Z 00000KT 10SM CLR 06/02 A3030 RMK AO2 SLP262 T00560017
KNUQ 111456Z 00000KT 10SM CLR 03/01 A3029 RMK AO2 SLP259 T00330006 53005
KNUQ 111356Z 00000KT 10SM CLR 04/01 A3028 RMK AO2 SLP257 T00440011
KNUQ 111256Z 00000KT 10SM CLR 04/01 A3027 RMK AO2 SLP254 T00390006
KNUQ 111156Z 00000KT 10SM CLR 04/01 A3027 RMK AO2 SLP254 T00440011 10094 20033 51008
KNUQ 111056Z 00000KT 10SM CLR 05/02 A3027 RMK AO2 SLP253 T00500017
KNUQ 110956Z 00000KT 10SM CLR 05/02 A3027 RMK AO2 SLP252 T00500017
KNUQ 110856Z 00000KT 10SM CLR 06/02 A3025 RMK AO2 SLP246 T00610022 51004
KNUQ 110756Z 00000KT 10SM CLR 07/02 A3025 RMK AO2 SLP245 T00670022 402000017
KNUQ 110656Z 00000KT 10SM CLR 08/03 A3025 RMK AO2 SLP245 T00780028
KNUQ 110556Z 00000KT 10SM CLR 08/03 A3024 RMK AO2 SLP242 T00780033 10189 20078 51012
KNUQ 110456Z 00000KT 10SM CLR 09/03 A3023 RMK AO2 SLP240 T00940033
KNUQ 110356Z 00000KT 10SM CLR 10/04 A3022 RMK AO2 SLP234 T01000039
KNUQ 110256Z 00000KT 10SM CLR 12/04 A3020 RMK AO2 SLP230 T01220039 53002
KNUQ 110156Z 28003KT 10SM CLR 14/03 A3019 RMK AO2 SLP226 T01440033
KNUQ 110056Z 31004KT 10SM CLR 17/02 A3019 RMK AO2 SLP227 T01670017
KNUQ 102356Z 33003KT 10SM CLR 19/02 A3020 RMK AO2 SLP228 T01890017 10200 20117 56014
KNUQ 102256Z 33003KT 10SM CLR 20/01 A3020 RMK AO2 SLP230 T02000011